Darstellungsparameter: Aktuell verwendete Einstellungen:
Skalierung der Graphiken ... ?
xyx+y,   Skalierungsfaktor:      Skalierung: Modus: x, Faktor: 1
Darstellungszeitraum ... ?
Vom - - bis: - -   Zeitraum: 28.12.2010 - 29.12.2010
Min/Max/Avg-Anzeige ... ?
Zeige MMA aktuell
Zeige MMA Monat
Zeige MMA alles
Zeige --A aktuell
Zeige --A Monat
Zeige --A alles
Keine MMA-Anzeige
MMA:
Average (ber die Originaldaten)
MMA-Basis: 28.12.2010 - 29.12.2010
Quicknavigation für Darstellung... ?
Tage:      1T, 2T, 3T, 5T -1T -2T -3T -5T +1T +2T +3T +5T
Wochen: 1W, 2W, 3W -1W -2W -3W +1W +2W +3W
Monate: 1M, 3M, 6M -1M -3M -6M +1M +3M +6M
Jahre:    1J, 3J, 5J, 10J -1J -3J -5J -10J +1J +3J +5J +10J
Nutze für die Darstellung ... ?
Originaldaten oder Mittelwerte auf ...
Stundenbasis Tagesbasis Wochenbasis
Monatsbasis Jahresbasis      Datenbasis: Original-Daten
Darstellen als:
Statistik (Auto) Statistik J:M      Darstellung:
Zur Graphik,    zurück zur Übersicht aller Sensoren.
 
Tabellarische Datenbersicht: ?
 
Sensor: Nr:Datum:Temp:Abs-Feuchte:Windchill:Wind:
Aussen-T/F 1 28-12-2010 00:11:03 -4.7 C 3.03 g/m*3 -4.7 C 0 km/h
2 28-12-2010 00:23:03 -4.5 C 3.07 g/m*3 -4.5 C 0 km/h
3 28-12-2010 00:35:03 -4.5 C 3.07 g/m*3 -4.5 C 0 km/h
4 28-12-2010 00:47:03 -4.3 C 3.12 g/m*3 -4.3 C 0 km/h
5 28-12-2010 00:59:03 -4.3 C 3.12 g/m*3 -4.3 C 0 km/h
6 28-12-2010 01:11:03 -4.1 C 3.16 g/m*3 -4.1 C 0 km/h
7 28-12-2010 01:23:03 -4.4 C 3.09 g/m*3 -4.4 C 0 km/h
8 28-12-2010 01:35:03 -4.4 C 3.09 g/m*3 -4.4 C 0 km/h
9 28-12-2010 01:47:03 -4.3 C 3.12 g/m*3 -4.3 C 0 km/h
10 28-12-2010 01:59:03 -4.3 C 3.12 g/m*3 -4.3 C 0 km/h
11 28-12-2010 02:11:03 -4.1 C 3.16 g/m*3 -4.1 C 0 km/h
12 28-12-2010 02:23:03 -4 C 3.18 g/m*3 -4 C 0 km/h
13 28-12-2010 02:35:03 -4.1 C 3.16 g/m*3 -4.1 C 0 km/h
14 28-12-2010 02:47:03 -4.2 C 3.14 g/m*3 -4.2 C 0 km/h
15 28-12-2010 02:59:03 -4.4 C 3.09 g/m*3 -4.4 C 0 km/h
16 28-12-2010 03:11:03 -4.2 C 3.14 g/m*3 -4.2 C 0 km/h
17 28-12-2010 03:23:04 -4.2 C 3.14 g/m*3 -4.2 C 0 km/h
18 28-12-2010 03:35:04 -4.5 C 3.04 g/m*3 -4.5 C 0 km/h
19 28-12-2010 03:47:04 -4.5 C 3.04 g/m*3 -4.5 C 0 km/h
20 28-12-2010 03:59:04 -4.4 C 3.06 g/m*3 -4.4 C 0 km/h
21 28-12-2010 04:11:04 -4.2 C 3.14 g/m*3 -4.2 C 0 km/h
22 28-12-2010 04:23:04 -4.2 C 3.14 g/m*3 -4.2 C 0 km/h
23 28-12-2010 04:35:04 -4.2 C 3.14 g/m*3 -4.2 C 0 km/h
24 28-12-2010 04:47:04 -4.2 C 3.14 g/m*3 -4.2 C 0 km/h
25 28-12-2010 04:59:04 -4 C 3.18 g/m*3 -4 C 0 km/h
Sensor: Nr:Datum:Temp:Abs-Feuchte:Windchill:Wind:
Aussen-T/F 26 28-12-2010 05:11:04 -3.9 C 3.21 g/m*3 -3.9 C 0 km/h
27 28-12-2010 05:23:04 -3.8 C 3.23 g/m*3 -3.8 C 0 km/h
28 28-12-2010 05:35:04 -3.8 C 3.23 g/m*3 -3.8 C 0 km/h
29 28-12-2010 05:47:04 -3.6 C 3.27 g/m*3 -3.6 C 0 km/h
30 28-12-2010 05:59:04 -3.8 C 3.23 g/m*3 -3.8 C 0 km/h
31 28-12-2010 06:11:04 -3.6 C 3.27 g/m*3 -3.6 C 0 km/h
32 28-12-2010 06:23:04 -3.7 C 3.25 g/m*3 -3.7 C 0 km/h
33 28-12-2010 06:35:04 -3.8 C 3.23 g/m*3 -3.8 C 0 km/h
34 28-12-2010 06:47:04 -3.8 C 3.23 g/m*3 -3.8 C 0 km/h
35 28-12-2010 06:59:04 -3.8 C 3.23 g/m*3 -3.8 C 0 km/h
36 28-12-2010 07:11:04 -3.7 C 3.25 g/m*3 -3.7 C 0 km/h
37 28-12-2010 07:23:05 -3.7 C 3.21 g/m*3 -3.7 C 0 km/h
38 28-12-2010 07:35:05 -3.7 C 3.21 g/m*3 -3.7 C 0 km/h
39 28-12-2010 07:47:05 -3.7 C 3.21 g/m*3 -3.7 C 0 km/h
40 28-12-2010 07:59:05 -3.8 C 3.19 g/m*3 -3.8 C 0 km/h
41 28-12-2010 08:11:05 -3.7 C 3.21 g/m*3 -3.7 C 0 km/h
42 28-12-2010 08:23:05 -3.7 C 3.21 g/m*3 -3.7 C 0 km/h
43 28-12-2010 08:35:05 -3.6 C 3.24 g/m*3 -3.6 C 0 km/h
44 28-12-2010 08:47:05 -3.5 C 3.26 g/m*3 -3.5 C 0 km/h
45 28-12-2010 08:59:05 -3.3 C 3.31 g/m*3 -3.3 C 0 km/h
46 28-12-2010 09:11:05 -3.1 C 3.35 g/m*3 -3.1 C 0 km/h
47 28-12-2010 09:23:05 -3 C 3.38 g/m*3 -3 C 0 km/h
48 28-12-2010 09:35:05 -2.7 C 3.45 g/m*3 -2.7 C 0 km/h
49 28-12-2010 09:47:05 -2.5 C 3.46 g/m*3 -2.5 C 0 km/h
50 28-12-2010 09:59:05 -2.1 C 3.56 g/m*3 -2.1 C 0 km/h
Sensor: Nr:Datum:Temp:Abs-Feuchte:Windchill:Wind:
Aussen-T/F 51 28-12-2010 10:11:02 -1.7 C 3.62 g/m*3 -1.7 C 0 km/h
52 28-12-2010 10:23:02 -1.4 C 3.65 g/m*3 -1.4 C 0 km/h
53 28-12-2010 10:35:02 -1.1 C 3.68 g/m*3 -1.1 C 0 km/h
54 28-12-2010 10:47:01 -0.7 C 3.6 g/m*3 -0.7 C 0 km/h
55 28-12-2010 10:59:01 -0.7 C 3.51 g/m*3 -0.7 C 0 km/h
56 28-12-2010 11:11:02 -0.8 C 3.44 g/m*3 -0.8 C 0 km/h
57 28-12-2010 11:23:01 -0.7 C 3.51 g/m*3 -0.7 C 0 km/h
58 28-12-2010 11:35:01 -0.6 C 3.49 g/m*3 -0.6 C 0 km/h
59 28-12-2010 11:47:01 -0.3 C 3.46 g/m*3 -0.3 C 0 km/h
60 28-12-2010 11:59:01 -0.3 C 3.42 g/m*3 -0.3 C 0 km/h
61 28-12-2010 12:11:02 0.1 C 3.46 g/m*3 0.1 C 0 km/h
62 28-12-2010 12:23:01 0.2 C 3.39 g/m*3 0.2 C 0 km/h
63 28-12-2010 12:35:02 0.5 C 3.26 g/m*3 0.5 C 0 km/h
64 28-12-2010 12:47:01 0.3 C 3.22 g/m*3 0.3 C 0 km/h
65 28-12-2010 12:59:01 0.4 C 3.24 g/m*3 0.4 C 0 km/h
66 28-12-2010 13:11:02 0.2 C 3.24 g/m*3 0.2 C 0 km/h
67 28-12-2010 13:23:01 0.5 C 3.36 g/m*3 0.5 C 0 km/h
68 28-12-2010 13:35:01 0.7 C 3.41 g/m*3 0.7 C 0 km/h
69 28-12-2010 13:47:01 0.4 C 3.34 g/m*3 0.4 C 0 km/h
70 28-12-2010 13:59:01 0 C 3.25 g/m*3 0 C 0 km/h
71 28-12-2010 14:11:01 0.3 C 3.36 g/m*3 0.3 C 0 km/h
72 28-12-2010 14:23:02 0 C 3.29 g/m*3 0 C 0 km/h
73 28-12-2010 14:35:01 -0.1 C 3.27 g/m*3 -0.1 C 0 km/h
74 28-12-2010 14:47:02 0 C 3.34 g/m*3 0 C 0 km/h
75 28-12-2010 14:59:02 -0.2 C 3.39 g/m*3 -0.2 C 0 km/h
Sensor: Nr:Datum:Temp:Abs-Feuchte:Windchill:Wind:
Aussen-T/F 76 28-12-2010 15:11:01 -0.4 C 3.39 g/m*3 -0.4 C 0 km/h
77 28-12-2010 15:23:01 -0.5 C 3.42 g/m*3 -0.5 C 0 km/h
78 28-12-2010 15:35:01 -0.6 C 3.44 g/m*3 -0.6 C 0 km/h
79 28-12-2010 15:47:02 -0.6 C 3.44 g/m*3 -0.6 C 0 km/h
80 28-12-2010 15:59:02 -0.6 C 3.39 g/m*3 -0.6 C 0 km/h
81 28-12-2010 16:11:01 -0.6 C 3.39 g/m*3 -0.6 C 0 km/h
82 28-12-2010 16:23:02 -0.7 C 3.37 g/m*3 -0.7 C 0 km/h
83 28-12-2010 16:35:02 -0.7 C 3.37 g/m*3 -0.7 C 0 km/h
84 28-12-2010 16:47:01 -0.7 C 3.42 g/m*3 -0.7 C 0 km/h
85 28-12-2010 16:59:01 -0.7 C 3.42 g/m*3 -0.7 C 0 km/h
86 28-12-2010 17:11:02 -0.7 C 3.42 g/m*3 -0.7 C 0 km/h
87 28-12-2010 17:23:01 -0.7 C 3.42 g/m*3 -0.7 C 0 km/h
88 28-12-2010 17:35:02 -0.7 C 3.42 g/m*3 -0.7 C 0 km/h
89 28-12-2010 17:47:02 -0.7 C 3.42 g/m*3 -0.7 C 0 km/h
90 28-12-2010 17:59:02 -0.7 C 3.42 g/m*3 -0.7 C 0 km/h
91 28-12-2010 18:11:02 -0.8 C 3.44 g/m*3 -0.8 C 0 km/h
92 28-12-2010 18:23:01 -0.8 C 3.44 g/m*3 -0.8 C 0 km/h
93 28-12-2010 18:35:02 -0.8 C 3.35 g/m*3 -0.8 C 0 km/h
94 28-12-2010 18:47:01 -0.9 C 3.32 g/m*3 -0.9 C 0 km/h
95 28-12-2010 18:59:01 -1.1 C 3.37 g/m*3 -1.1 C 0 km/h
96 28-12-2010 19:11:02 -1.1 C 3.41 g/m*3 -1.1 C 0 km/h
97 28-12-2010 19:23:01 -1.1 C 3.41 g/m*3 -1.1 C 0 km/h
98 28-12-2010 19:35:02 -1.2 C 3.43 g/m*3 -1.2 C 0 km/h
99 28-12-2010 19:47:01 -1.2 C 3.52 g/m*3 -1.2 C 0 km/h
100 28-12-2010 19:59:01 -1.4 C 3.47 g/m*3 -1.4 C 0 km/h
Sensor: Nr:Datum:Temp:Abs-Feuchte:Windchill:Wind:
Aussen-T/F 101 28-12-2010 20:11:02 -1.2 C 3.48 g/m*3 -1.2 C 0 km/h
102 28-12-2010 20:23:02 -1.2 C 3.48 g/m*3 -1.2 C 0 km/h
103 28-12-2010 20:35:01 -1.4 C 3.43 g/m*3 -1.4 C 0 km/h
104 28-12-2010 20:47:02 -1.5 C 3.41 g/m*3 -1.5 C 0 km/h
105 28-12-2010 20:59:02 -1.7 C 3.36 g/m*3 -1.7 C 0 km/h
106 28-12-2010 21:11:01 -1.9 C 3.31 g/m*3 -1.9 C 0 km/h
107 28-12-2010 21:23:02 -2 C 3.33 g/m*3 -2 C 0 km/h
108 28-12-2010 21:35:01 -2.1 C 3.35 g/m*3 -2.1 C 0 km/h
109 28-12-2010 21:47:02 -1.8 C 3.46 g/m*3 -1.8 C 0 km/h
110 28-12-2010 21:59:02 -1.5 C 3.54 g/m*3 -1.5 C 0 km/h
111 28-12-2010 22:11:02 -1.2 C 3.61 g/m*3 -1.2 C 0 km/h
112 28-12-2010 22:24:03 -1.3 C 3.59 g/m*3 -1.3 C 0 km/h
113 28-12-2010 22:36:03 -1.3 C 3.59 g/m*3 -1.3 C 0 km/h
114 28-12-2010 22:48:03 -1.3 C 3.59 g/m*3 -1.3 C 0 km/h
115 28-12-2010 23:00:03 -1.3 C 3.54 g/m*3 -1.3 C 0 km/h
116 28-12-2010 23:12:03 -1.3 C 3.59 g/m*3 -1.3 C 0 km/h
117 28-12-2010 23:24:03 -1.3 C 3.59 g/m*3 -1.3 C 0 km/h
118 28-12-2010 23:36:03 -1.3 C 3.59 g/m*3 -1.3 C 0 km/h
119 28-12-2010 23:48:03 -1.2 C 3.61 g/m*3 -1.2 C 0 km/h
120 29-12-2010 00:00:03 -1.3 C 3.54 g/m*3 -1.3 C 0 km/h
121 29-12-2010 00:12:03 -1.4 C 3.52 g/m*3 -1.4 C 0 km/h
122 29-12-2010 00:24:03 -1.3 C 3.59 g/m*3 -1.3 C 0 km/h
123 29-12-2010 00:36:03 -1.3 C 3.59 g/m*3 -1.3 C 0 km/h
124 29-12-2010 00:48:03 -1.3 C 3.59 g/m*3 -1.3 C 0 km/h
125 29-12-2010 01:00:03 -1.3 C 3.59 g/m*3 -1.3 C 0 km/h
Sensor: Nr:Datum:Temp:Abs-Feuchte:Windchill:Wind:
Aussen-T/F 126 29-12-2010 01:12:03 -1.3 C 3.63 g/m*3 -1.3 C 0 km/h
127 29-12-2010 01:24:03 -1.3 C 3.63 g/m*3 -1.3 C 0 km/h
128 29-12-2010 01:36:03 -1.3 C 3.63 g/m*3 -1.3 C 0 km/h
129 29-12-2010 01:48:03 -1.3 C 3.63 g/m*3 -1.3 C 0 km/h
130 29-12-2010 02:00:03 -1.3 C 3.63 g/m*3 -1.3 C 0 km/h
131 29-12-2010 02:12:04 -1.3 C 3.63 g/m*3 -1.3 C 0 km/h
132 29-12-2010 02:24:04 -1.3 C 3.63 g/m*3 -1.3 C 0 km/h
133 29-12-2010 02:36:04 -1.3 C 3.63 g/m*3 -1.3 C 0 km/h
134 29-12-2010 02:48:04 -1.3 C 3.67 g/m*3 -1.3 C 0 km/h
135 29-12-2010 03:00:04 -1.2 C 3.66 g/m*3 -1.2 C 0 km/h
136 29-12-2010 03:12:04 -1.3 C 3.63 g/m*3 -1.3 C 0 km/h
137 29-12-2010 03:24:04 -1.2 C 3.7 g/m*3 -1.2 C 0 km/h
138 29-12-2010 03:36:04 -1.2 C 3.7 g/m*3 -1.2 C 0 km/h
139 29-12-2010 03:48:04 -1.2 C 3.7 g/m*3 -1.2 C 0 km/h
140 29-12-2010 04:00:04 -1.2 C 3.7 g/m*3 -1.2 C 0 km/h
141 29-12-2010 04:12:04 -1.2 C 3.7 g/m*3 -1.2 C 0 km/h
142 29-12-2010 04:24:04 -1.3 C 3.63 g/m*3 -1.3 C 0 km/h
143 29-12-2010 04:36:04 -1.3 C 3.63 g/m*3 -1.3 C 0 km/h
144 29-12-2010 04:48:04 -1.4 C 3.65 g/m*3 -1.4 C 0 km/h
145 29-12-2010 05:00:04 -1.4 C 3.65 g/m*3 -1.4 C 0 km/h
146 29-12-2010 05:12:04 -1.3 C 3.67 g/m*3 -1.3 C 0 km/h
147 29-12-2010 05:24:04 -1.3 C 3.67 g/m*3 -1.3 C 0 km/h
148 29-12-2010 05:36:04 -1.3 C 3.67 g/m*3 -1.3 C 0 km/h
149 29-12-2010 05:48:04 -1.2 C 3.7 g/m*3 -1.2 C 0 km/h
150 29-12-2010 06:00:04 -1.2 C 3.7 g/m*3 -1.2 C 0 km/h
Sensor: Nr:Datum:Temp:Abs-Feuchte:Windchill:Wind:
Aussen-T/F 151 29-12-2010 06:12:05 -1.3 C 3.67 g/m*3 -1.3 C 0 km/h
152 29-12-2010 06:24:05 -1.2 C 3.74 g/m*3 -1.2 C 0 km/h
153 29-12-2010 06:36:05 -1.2 C 3.74 g/m*3 -1.2 C 0 km/h
154 29-12-2010 06:48:05 -1.1 C 3.77 g/m*3 -1.1 C 0 km/h
155 29-12-2010 07:00:05 -1.1 C 3.77 g/m*3 -1.1 C 0 km/h
156 29-12-2010 07:12:05 -1.1 C 3.77 g/m*3 -1.1 C 0 km/h
157 29-12-2010 07:24:05 -1.1 C 3.77 g/m*3 -1.1 C 0 km/h
158 29-12-2010 07:36:05 -1.1 C 3.82 g/m*3 -1.1 C 0 km/h
159 29-12-2010 07:48:01 -1.1 C 3.82 g/m*3 -1.1 C 0 km/h
160 29-12-2010 08:00:01 -1.1 C 3.82 g/m*3 -1.1 C 0 km/h
161 29-12-2010 08:12:02 -1.1 C 3.82 g/m*3 -1.1 C 0 km/h
162 29-12-2010 08:24:01 -1.2 C 3.79 g/m*3 -1.2 C 0 km/h
163 29-12-2010 08:36:01 -1.1 C 3.86 g/m*3 -1.1 C 0 km/h
164 29-12-2010 08:48:01 -1 C 3.89 g/m*3 -1 C 0 km/h
165 29-12-2010 09:00:01 -0.9 C 3.91 g/m*3 -0.9 C 0 km/h
166 29-12-2010 09:12:02 -0.9 C 3.87 g/m*3 -0.9 C 0 km/h
167 29-12-2010 09:24:02 -0.7 C 3.92 g/m*3 -0.7 C 0 km/h
168 29-12-2010 09:36:01 -0.7 C 3.88 g/m*3 -0.7 C 0 km/h
169 29-12-2010 09:48:01 -0.5 C 3.84 g/m*3 -0.5 C 0 km/h
170 29-12-2010 10:00:01 -0.2 C 3.87 g/m*3 -0.2 C 0 km/h
171 29-12-2010 10:12:02 0 C 3.78 g/m*3 0 C 0 km/h
172 29-12-2010 10:24:01 0.2 C 3.73 g/m*3 0.2 C 0 km/h
173 29-12-2010 10:36:01 0.3 C 3.71 g/m*3 0.3 C 0 km/h
174 29-12-2010 10:48:01 0.4 C 3.64 g/m*3 0.4 C 0 km/h
175 29-12-2010 11:00:01 0.4 C 3.64 g/m*3 0.4 C 0 km/h
Sensor: Nr:Datum:Temp:Abs-Feuchte:Windchill:Wind:
Aussen-T/F 176 29-12-2010 11:12:02 0.6 C 3.64 g/m*3 0.6 C 0 km/h
177 29-12-2010 11:24:01 0.6 C 3.59 g/m*3 0.6 C 0 km/h
178 29-12-2010 11:36:01 0.7 C 3.61 g/m*3 0.7 C 0 km/h
179 29-12-2010 11:48:01 0.6 C 3.53 g/m*3 0.6 C 0 km/h
180 29-12-2010 12:00:01 0.9 C 3.66 g/m*3 0.9 C 0 km/h
181 29-12-2010 12:12:01 0.9 C 3.61 g/m*3 0.9 C 0 km/h
182 29-12-2010 12:24:02 0.7 C 3.56 g/m*3 0.7 C 0 km/h
183 29-12-2010 12:36:01 1 C 3.53 g/m*3 1 C 0 km/h
184 29-12-2010 12:48:03 0.9 C 3.56 g/m*3 0.9 C 0 km/h
185 29-12-2010 13:00:03 1.3 C 3.66 g/m*3 1.3 C 0 km/h
186 29-12-2010 13:12:02 1.2 C 3.58 g/m*3 1.2 C 0 km/h
187 29-12-2010 13:24:02 1.4 C 3.63 g/m*3 1.4 C 0 km/h
188 29-12-2010 13:36:02 1.5 C 3.6 g/m*3 1.5 C 0 km/h
189 29-12-2010 13:48:02 1.3 C 3.6 g/m*3 1.3 C 0 km/h
190 29-12-2010 14:00:02 1.6 C 3.68 g/m*3 1.6 C 0 km/h
191 29-12-2010 14:12:01 1.7 C 3.65 g/m*3 1.7 C 0 km/h
192 29-12-2010 14:24:02 1.7 C 3.65 g/m*3 1.7 C 0 km/h
193 29-12-2010 14:36:02 2.1 C 3.69 g/m*3 2.1 C 0 km/h
194 29-12-2010 14:48:01 1.7 C 3.65 g/m*3 1.7 C 0 km/h
195 29-12-2010 15:00:01 1.3 C 3.66 g/m*3 1.3 C 0 km/h
196 29-12-2010 15:12:02 1.3 C 3.71 g/m*3 1.3 C 0 km/h
197 29-12-2010 15:24:01 1.2 C 3.74 g/m*3 1.2 C 0 km/h
198 29-12-2010 15:36:01 1.1 C 3.76 g/m*3 1.1 C 0 km/h
199 29-12-2010 15:48:01 1 C 3.79 g/m*3 1 C 0 km/h
200 29-12-2010 16:00:01 0.8 C 3.84 g/m*3 0.8 C 0 km/h
Sensor: Nr:Datum:Temp:Abs-Feuchte:Windchill:Wind:
Aussen-T/F 201 29-12-2010 16:12:02 0.7 C 3.81 g/m*3 0.7 C 0 km/h
202 29-12-2010 16:24:01 0.6 C 3.89 g/m*3 0.6 C 0 km/h
203 29-12-2010 16:36:02 0.5 C 3.86 g/m*3 0.5 C 0 km/h
204 29-12-2010 16:48:01 0.5 C 3.86 g/m*3 0.5 C 0 km/h
205 29-12-2010 17:00:01 0.4 C 3.84 g/m*3 0.4 C 0 km/h
206 29-12-2010 17:12:02 0.3 C 3.81 g/m*3 0.3 C 0 km/h
207 29-12-2010 17:24:01 0.3 C 3.86 g/m*3 0.3 C 0 km/h
208 29-12-2010 17:36:02 0.2 C 3.88 g/m*3 0.2 C 0 km/h
209 29-12-2010 17:48:01 0.2 C 3.88 g/m*3 0.2 C 0 km/h
210 29-12-2010 18:00:01 0.2 C 3.88 g/m*3 0.2 C 0 km/h
211 29-12-2010 18:12:02 0.2 C 3.88 g/m*3 0.2 C 0 km/h
212 29-12-2010 18:24:02 0.1 C 3.85 g/m*3 0.1 C 0 km/h
213 29-12-2010 18:36:01 0.1 C 3.9 g/m*3 0.1 C 0 km/h
214 29-12-2010 18:48:02 0.1 C 3.95 g/m*3 0.1 C 0 km/h
215 29-12-2010 19:00:02 0.1 C 3.95 g/m*3 0.1 C 0 km/h
216 29-12-2010 19:12:01 0.1 C 3.95 g/m*3 0.1 C 0 km/h
217 29-12-2010 19:24:02 0.1 C 4 g/m*3 0.1 C 0 km/h
218 29-12-2010 19:36:01 0 C 3.97 g/m*3 0 C 0 km/h
219 29-12-2010 19:48:02 0 C 3.97 g/m*3 0 C 0 km/h
220 29-12-2010 20:00:02 0 C 3.97 g/m*3 0 C 0 km/h
221 29-12-2010 20:12:01 0 C 3.97 g/m*3 0 C 0 km/h
222 29-12-2010 20:24:01 0 C 3.97 g/m*3 0 C 0 km/h
223 29-12-2010 20:36:01 -0.1 C 3.95 g/m*3 -0.1 C 0 km/h
224 29-12-2010 20:48:02 -0.1 C 3.95 g/m*3 -0.1 C 0 km/h
225 29-12-2010 21:00:02 -0.1 C 3.95 g/m*3 -0.1 C 0 km/h
Sensor: Nr:Datum:Temp:Abs-Feuchte:Windchill:Wind:
Aussen-T/F 226 29-12-2010 21:12:02 -0.2 C 3.92 g/m*3 -0.2 C 0 km/h
227 29-12-2010 21:24:02 -0.2 C 3.92 g/m*3 -0.2 C 0 km/h
228 29-12-2010 21:36:02 -0.2 C 3.92 g/m*3 -0.2 C 0 km/h
229 29-12-2010 21:48:01 -0.2 C 3.92 g/m*3 -0.2 C 0 km/h
230 29-12-2010 22:00:01 -0.2 C 3.92 g/m*3 -0.2 C 0 km/h
231 29-12-2010 22:12:02 -0.3 C 3.89 g/m*3 -0.3 C 0 km/h
232 29-12-2010 22:24:01 -0.3 C 3.84 g/m*3 -0.3 C 0 km/h
233 29-12-2010 22:36:01 -0.3 C 3.8 g/m*3 -0.3 C 0 km/h
234 29-12-2010 22:48:01 -0.5 C 3.74 g/m*3 -0.5 C 0 km/h
235 29-12-2010 23:00:01 -0.6 C 3.76 g/m*3 -0.6 C 0 km/h
236 29-12-2010 23:12:02 -0.6 C 3.81 g/m*3 -0.6 C 0 km/h
237 29-12-2010 23:24:02 -0.7 C 3.78 g/m*3 -0.7 C 0 km/h
238 29-12-2010 23:36:01 -0.7 C 3.83 g/m*3 -0.7 C 0 km/h
239 29-12-2010 23:49:59 -0.9 C 3.78 g/m*3 -0.9 C 0 km/h

Legende:
   Min
   Max


Maximal/Minimal-Werte vom 28.12.2010 - 29.12.2010

Sensor Min Max Avg
Temp
(Aussen-T/F)
-4.7 °C
28-12-2010  00:11:03
2.1 °C
29-12-2010  14:36:02
-1.16 °C
Abs-Feuchte
(Aussen-T/F)
3.03 g/m*3
28-12-2010  00:11:03
4 g/m*3
29-12-2010  19:24:02
3.53 g/m*3
Windchill
(Aussen-T/F)
-4.7 C
28-12-2010  00:11:03
2.1 C
29-12-2010  14:36:02
-1.16 C

Die Daten stammen von einer Davis Vantage Pro 2 Wetter-Station und werden unter Linux mit der Software wview2wettercgi und aufbereitet. Alle Angaben erfolgen ohne Gewähr für ihre Vollständigkeit oder Richtigkeit.
Kontakt: Rainer Krienke krienke@uni-koblenz.de . Meine Webseiten an der Uni Koblenz oder privat.
Version: $Revision: 0.78 $